Time;durP1;ratioP1;P1;durP2;ratioP2;P2;SDS_P1;SDS_P2;PMS_P1;PMS_P2;Temp;Humidity;BMP_temperature;BMP_pressure;BME280_temperature;BME280_humidity;BME280_pressure;Samples;Min_cycle;Max_cycle;Signal;HPM_P1;HPM_P2
2023/12/20 00:02:14;;;;;;;4.68;1.50;;;7.40;94.00;;;;;;5091817;28;20032;-30
2023/12/20 00:04:40;;;;;;;4.13;1.17;;;7.50;93.90;;;;;;5089795;28;20511;-30
2023/12/20 00:07:06;;;;;;;7.55;1.75;;;7.40;93.90;;;;;;5091463;28;20032;-29
2023/12/20 00:09:31;;;;;;;6.80;1.83;;;7.40;93.90;;;;;;5091918;28;20172;-30
2023/12/20 00:11:57;;;;;;;9.18;1.70;;;7.40;93.90;;;;;;5091479;28;20488;-31
2023/12/20 00:14:22;;;;;;;6.78;1.75;;;7.40;93.80;;;;;;5091288;28;20469;-29
2023/12/20 00:16:48;;;;;;;11.63;2.10;;;7.30;93.80;;;;;;5091722;28;20105;-30
2023/12/20 00:19:13;;;;;;;8.38;1.90;;;7.30;93.80;;;;;;5091440;28;20028;-30
2023/12/20 00:21:39;;;;;;;7.15;2.40;;;7.30;93.90;;;;;;5091733;28;20020;-29
2023/12/20 00:24:05;;;;;;;6.45;1.73;;;7.30;93.90;;;;;;5091609;28;20063;-33
2023/12/20 00:26:30;;;;;;;8.05;1.80;;;7.30;93.80;;;;;;5091433;28;20106;-30
2023/12/20 00:28:56;;;;;;;8.30;2.10;;;7.40;93.80;;;;;;5091512;28;20055;-28
2023/12/20 00:31:21;;;;;;;7.40;2.22;;;7.40;93.80;;;;;;5091239;28;20028;-37
2023/12/20 00:33:47;;;;;;;8.30;2.22;;;7.30;93.80;;;;;;5091369;28;20036;-29
2023/12/20 00:36:13;;;;;;;7.40;1.60;;;7.30;93.80;;;;;;5091280;28;20114;-30
2023/12/20 00:38:38;;;;;;;5.35;2.00;;;7.30;93.80;;;;;;5091329;28;20077;-29
2023/12/20 00:41:04;;;;;;;13.38;1.95;;;7.30;93.80;;;;;;5091442;28;20024;-30
2023/12/20 00:43:29;;;;;;;5.63;2.00;;;7.20;94.10;;;;;;5091285;28;20043;-33
2023/12/20 00:45:55;;;;;;;5.90;2.17;;;7.20;93.80;;;;;;5091064;28;20035;-30
2023/12/20 00:48:21;;;;;;;5.43;1.50;;;7.20;93.90;;;;;;5091042;28;20028;-33
2023/12/20 00:50:46;;;;;;;4.60;1.70;;;7.10;93.80;;;;;;5091252;28;20111;-30
2023/12/20 00:53:12;;;;;;;6.50;1.90;;;7.10;93.90;;;;;;5091291;28;20027;-33
2023/12/20 00:55:37;;;;;;;5.80;1.67;;;7.10;93.90;;;;;;5090769;28;20036;-39
2023/12/20 00:58:03;;;;;;;11.43;2.38;;;7.10;93.90;;;;;;5091177;28;20033;-35
2023/12/20 01:00:29;;;;;;;9.80;2.47;;;7.10;93.90;;;;;;5091527;28;20036;-37
2023/12/20 01:02:54;;;;;;;3.50;1.40;;;7.10;93.90;;;;;;5094787;28;20495;-35
2023/12/20 01:05:22;;;;;;;6.78;1.85;;;7.00;93.90;;;;;;5094742;28;20104;-35
2023/12/20 01:07:48;;;;;;;5.47;2.00;;;7.00;93.90;;;;;;5095066;28;20389;-38
2023/12/20 01:10:14;;;;;;;6.50;1.98;;;7.00;93.90;;;;;;5094912;28;20024;-37
2023/12/20 01:12:40;;;;;;;11.73;2.28;;;7.00;93.90;;;;;;5094954;28;20032;-34
2023/12/20 01:15:06;;;;;;;5.75;1.88;;;7.00;93.90;;;;;;5094300;28;20396;-35
2023/12/20 01:17:31;;;;;;;5.85;1.45;;;7.00;93.90;;;;;;5094787;28;20077;-37
2023/12/20 01:19:58;;;;;;;6.97;2.03;;;7.00;93.90;;;;;;5094793;28;20024;-36
2023/12/20 01:22:23;;;;;;;10.52;2.60;;;7.00;93.90;;;;;;5094991;28;20406;-31
2023/12/20 01:24:49;;;;;;;8.45;2.22;;;6.90;93.90;;;;;;5094527;28;20072;-38
2023/12/20 01:27:15;;;;;;;7.95;2.35;;;7.00;94.00;;;;;;5094614;28;20059;-36
2023/12/20 01:29:40;;;;;;;8.50;2.83;;;7.00;93.90;;;;;;5094304;28;20111;-31
2023/12/20 01:32:06;;;;;;;8.70;2.67;;;7.00;93.90;;;;;;5094399;28;20035;-31
2023/12/20 01:34:32;;;;;;;7.93;2.60;;;7.00;93.90;;;;;;5094046;28;20035;-33
2023/12/20 01:36:57;;;;;;;8.05;2.47;;;7.00;93.90;;;;;;5094345;28;20020;-32
2023/12/20 01:39:23;;;;;;;6.78;2.30;;;6.90;93.90;;;;;;5094502;28;20073;-31
2023/12/20 01:41:49;;;;;;;6.65;2.42;;;6.90;93.90;;;;;;5094172;28;20028;-29
2023/12/20 01:44:14;;;;;;;11.85;3.58;;;6.90;93.90;;;;;;5094012;28;20099;-32
2023/12/20 01:46:40;;;;;;;9.02;2.70;;;6.90;93.90;;;;;;5094091;28;20028;-31
2023/12/20 01:49:06;;;;;;;10.20;2.90;;;6.80;93.90;;;;;;5093908;28;20071;-29
2023/12/20 01:51:33;;;;;;;9.52;2.60;;;6.80;93.90;;;;;;5093950;28;20039;-30
2023/12/20 01:54:00;;;;;;;9.63;2.83;;;6.80;93.90;;;;;;5092512;28;20032;-31
2023/12/20 01:56:28;;;;;;;11.15;2.40;;;6.80;93.90;;;;;;5093711;28;20484;-30
2023/12/20 01:58:55;;;;;;;10.48;3.10;;;6.80;93.90;;;;;;5093930;28;20032;-30
2023/12/20 02:01:21;;;;;;;14.77;2.78;;;6.80;93.90;;;;;;5093364;28;20499;-29
2023/12/20 02:03:47;;;;;;;12.15;2.55;;;6.80;93.80;;;;;;5093550;28;20024;-29
2023/12/20 02:06:13;;;;;;;9.05;2.40;;;6.80;93.80;;;;;;5093910;28;20115;-31
2023/12/20 02:08:38;;;;;;;11.75;2.58;;;6.80;93.80;;;;;;5093577;28;20028;-31
2023/12/20 02:11:04;;;;;;;10.80;2.83;;;6.80;93.80;;;;;;5093869;28;20395;-29
2023/12/20 02:13:30;;;;;;;10.68;2.38;;;6.90;93.80;;;;;;5092421;28;20028;-31
2023/12/20 02:15:56;;;;;;;10.10;2.25;;;6.90;93.70;;;;;;5093534;28;20119;-35
2023/12/20 02:18:22;;;;;;;8.70;2.40;;;6.90;93.70;;;;;;5093558;28;20111;-29
2023/12/20 02:20:48;;;;;;;8.00;2.47;;;6.80;93.70;;;;;;5093588;28;20032;-29
2023/12/20 02:23:14;;;;;;;8.02;2.30;;;6.90;93.70;;;;;;5093444;28;20360;-29
2023/12/20 02:25:39;;;;;;;8.57;2.40;;;6.90;93.70;;;;;;5093322;28;20063;-30
2023/12/20 02:28:05;;;;;;;11.60;2.53;;;6.80;93.70;;;;;;5093355;28;20028;-30
2023/12/20 02:30:31;;;;;;;8.65;2.33;;;6.90;93.70;;;;;;5093270;28;20077;-29
2023/12/20 02:32:59;;;;;;;9.45;2.15;;;6.90;93.70;;;;;;5093192;28;20028;-32
2023/12/20 02:35:25;;;;;;;14.95;3.00;;;6.90;93.70;;;;;;5093150;28;20372;-31
2023/12/20 02:37:50;;;;;;;14.35;2.50;;;7.00;93.70;;;;;;5093109;28;20024;-32
2023/12/20 02:40:16;;;;;;;5.88;1.85;;;7.00;93.60;;;;;;5093197;28;20028;-29
2023/12/20 02:42:41;;;;;;;9.15;2.30;;;7.00;93.60;;;;;;5093019;28;20027;-31
2023/12/20 02:45:07;;;;;;;13.50;2.35;;;7.00;93.60;;;;;;5092944;28;20152;-34
2023/12/20 02:47:33;;;;;;;9.40;2.00;;;7.00;93.60;;;;;;5091666;28;20024;-30
2023/12/20 02:49:58;;;;;;;8.52;1.85;;;7.00;93.60;;;;;;5092578;28;20044;-30
2023/12/20 02:52:24;;;;;;;10.98;2.85;;;7.00;93.60;;;;;;5092780;28;20480;-29
2023/12/20 02:54:50;;;;;;;8.68;2.08;;;7.10;93.60;;;;;;5092343;28;20032;-29
2023/12/20 02:57:16;;;;;;;9.07;2.35;;;7.10;93.50;;;;;;5092785;28;20028;-30
2023/12/20 02:59:41;;;;;;;8.60;2.42;;;7.10;93.50;;;;;;5092705;28;20531;-29
2023/12/20 03:02:07;;;;;;;6.80;1.92;;;7.10;93.40;;;;;;5092647;28;20027;-28
2023/12/20 03:04:32;;;;;;;9.43;2.05;;;7.10;93.40;;;;;;5092301;28;20050;-31
2023/12/20 03:06:58;;;;;;;13.65;2.30;;;7.10;93.40;;;;;;5092529;28;20024;-30
2023/12/20 03:09:24;;;;;;;9.20;2.00;;;7.10;93.40;;;;;;5092437;28;20093;-28
2023/12/20 03:11:49;;;;;;;9.98;2.20;;;7.10;93.40;;;;;;5092377;28;20028;-29
2023/12/20 03:14:15;;;;;;;12.38;2.40;;;7.10;93.40;;;;;;5092067;28;20036;-30
2023/12/20 03:16:40;;;;;;;10.48;2.40;;;7.10;93.40;;;;;;5092294;28;20034;-29
2023/12/20 03:19:06;;;;;;;10.75;2.25;;;7.10;93.40;;;;;;5092072;28;20024;-30
2023/12/20 03:21:31;;;;;;;11.88;2.20;;;7.10;93.30;;;;;;5092030;28;20032;-33
2023/12/20 03:23:57;;;;;;;10.70;2.00;;;7.00;93.30;;;;;;5091909;28;20016;-29
2023/12/20 03:26:23;;;;;;;11.82;2.97;;;7.00;93.40;;;;;;5091977;28;20020;-30
2023/12/20 03:28:48;;;;;;;11.15;2.47;;;7.00;93.40;;;;;;5092161;28;20032;-30
2023/12/20 03:31:14;;;;;;;11.50;2.60;;;7.00;93.40;;;;;;5091960;28;20032;-31
2023/12/20 03:33:40;;;;;;;14.13;3.42;;;6.90;93.30;;;;;;5092062;28;20471;-32
2023/12/20 03:36:06;;;;;;;13.60;2.80;;;6.90;93.30;;;;;;5091714;28;20028;-29
2023/12/20 03:38:31;;;;;;;14.23;2.47;;;6.90;93.40;;;;;;5092270;28;20032;-30
2023/12/20 03:40:57;;;;;;;9.73;2.90;;;6.90;93.40;;;;;;5091966;28;20050;-33
2023/12/20 03:43:22;;;;;;;16.60;3.03;;;6.90;93.40;;;;;;5091995;28;20488;-29
2023/12/20 03:45:48;;;;;;;9.23;2.60;;;6.80;93.40;;;;;;5091500;28;20031;-29
2023/12/20 03:48:13;;;;;;;10.15;2.70;;;6.90;93.40;;;;;;5091583;28;20114;-31
2023/12/20 03:50:39;;;;;;;10.90;2.20;;;6.90;93.40;;;;;;5091778;28;20032;-29
2023/12/20 03:53:05;;;;;;;11.52;2.35;;;6.80;93.40;;;;;;5092121;28;20106;-29
2023/12/20 03:55:30;;;;;;;9.93;2.72;;;6.80;93.40;;;;;;5091436;28;20450;-30
2023/12/20 03:57:56;;;;;;;13.55;2.65;;;6.80;93.40;;;;;;5090683;28;20023;-35
2023/12/20 04:00:21;;;;;;;11.63;2.60;;;6.80;93.40;;;;;;5091699;28;20020;-31
2023/12/20 04:02:47;;;;;;;8.93;2.28;;;6.80;93.50;;;;;;5091580;28;20062;-34
2023/12/20 04:05:13;;;;;;;11.00;2.55;;;6.80;93.50;;;;;;5091400;28;20510;-29
2023/12/20 04:07:39;;;;;;;13.55;2.60;;;6.90;93.50;;;;;;5091579;28;20035;-30
2023/12/20 04:10:05;;;;;;;10.15;2.60;;;6.90;93.50;;;;;;5091688;28;20028;-30
2023/12/20 04:12:31;;;;;;;13.52;2.60;;;6.90;93.40;;;;;;5091496;28;20024;-30
2023/12/20 04:14:57;;;;;;;10.60;2.75;;;6.90;93.40;;;;;;5091417;28;20078;-29
2023/12/20 04:17:22;;;;;;;14.70;2.97;;;6.90;93.40;;;;;;5090150;28;20028;-35
2023/12/20 04:19:52;;;;;;;14.52;2.78;;;6.90;93.40;;;;;;5091459;28;20026;-34
2023/12/20 04:22:18;;;;;;;11.68;2.72;;;7.00;93.50;;;;;;5091332;28;20047;-30
2023/12/20 04:24:44;;;;;;;8.38;2.22;;;7.00;93.40;;;;;;5091451;28;20028;-29
2023/12/20 04:27:10;;;;;;;10.98;2.63;;;7.00;93.40;;;;;;5091397;28;20024;-31
2023/12/20 04:29:35;;;;;;;14.50;3.15;;;7.00;93.30;;;;;;5091563;28;20081;-32
2023/12/20 04:32:01;;;;;;;13.82;2.45;;;7.00;93.40;;;;;;5091496;28;20458;-33
2023/12/20 04:34:26;;;;;;;13.93;2.80;;;7.00;93.40;;;;;;5091051;28;20067;-34
2023/12/20 04:36:53;;;;;;;15.73;3.15;;;7.00;93.30;;;;;;5094090;28;20027;-29
2023/12/20 04:39:18;;;;;;;18.95;3.55;;;7.00;93.30;;;;;;5094070;28;20024;-32
2023/12/20 04:41:44;;;;;;;20.85;3.30;;;7.00;93.30;;;;;;5095507;28;20031;-29
2023/12/20 04:44:09;;;;;;;9.75;2.47;;;7.10;93.30;;;;;;5094966;28;20055;-35
2023/12/20 04:46:35;;;;;;;11.95;2.65;;;7.10;93.20;;;;;;5095778;28;20081;-29
2023/12/20 04:49:01;;;;;;;9.13;2.58;;;7.10;93.20;;;;;;5095176;28;20071;-31
2023/12/20 04:51:27;;;;;;;9.13;2.53;;;7.10;93.20;;;;;;5093934;28;20431;-29
2023/12/20 04:53:52;;;;;;;8.98;2.33;;;7.20;93.20;;;;;;5094793;28;20399;-31
2023/12/20 04:56:18;;;;;;;11.18;2.20;;;7.20;93.20;;;;;;5094782;28;20032;-30
2023/12/20 04:58:43;;;;;;;14.15;3.03;;;7.20;93.20;;;;;;5095035;28;20024;-30
2023/12/20 05:01:09;;;;;;;12.82;3.20;;;7.30;93.20;;;;;;5095172;28;20050;-34
2023/12/20 05:03:35;;;;;;;10.30;2.70;;;7.30;93.10;;;;;;5094730;28;20034;-29
2023/12/20 05:06:01;;;;;;;10.65;2.58;;;7.30;93.10;;;;;;5095092;28;20021;-33
2023/12/20 05:08:27;;;;;;;11.15;2.33;;;7.30;93.10;;;;;;5094864;28;20119;-30
2023/12/20 05:10:55;;;;;;;10.63;2.13;;;7.30;93.10;;;;;;5095024;28;20067;-29
2023/12/20 05:13:21;;;;;;;11.68;2.80;;;7.40;93.10;;;;;;5095019;28;20032;-30
2023/12/20 05:15:47;;;;;;;14.40;2.60;;;7.40;93.00;;;;;;5093117;28;20366;-31
2023/12/20 05:18:13;;;;;;;14.13;3.13;;;7.40;93.00;;;;;;5094351;28;20032;-30
2023/12/20 05:20:39;;;;;;;11.70;2.60;;;7.40;92.90;;;;;;5094298;28;20020;-31
2023/12/20 05:23:04;;;;;;;9.48;2.40;;;7.40;92.90;;;;;;5093389;28;20391;-29
2023/12/20 05:25:30;;;;;;;16.17;3.15;;;7.40;92.90;;;;;;5094760;28;20099;-29
2023/12/20 05:27:56;;;;;;;14.65;2.90;;;7.40;92.90;;;;;;5094495;28;20028;-31
2023/12/20 05:30:21;;;;;;;17.00;3.13;;;7.40;92.90;;;;;;5094779;28;20075;-29
2023/12/20 05:32:47;;;;;;;10.95;2.10;;;7.50;92.90;;;;;;5094510;28;20028;-30
2023/12/20 05:35:13;;;;;;;13.27;3.20;;;7.50;92.90;;;;;;5094322;28;20035;-31
2023/12/20 05:37:38;;;;;;;11.00;2.53;;;7.50;92.80;;;;;;5094425;28;20043;-29
2023/12/20 05:40:05;;;;;;;10.35;2.38;;;7.50;92.80;;;;;;5094464;28;20020;-29
2023/12/20 05:42:30;;;;;;;12.63;3.17;;;7.50;92.80;;;;;;5094592;28;20108;-31
2023/12/20 05:44:56;;;;;;;16.10;2.72;;;7.50;92.70;;;;;;5094081;28;20066;-32
2023/12/20 05:47:22;;;;;;;13.55;2.88;;;7.60;92.70;;;;;;5094122;28;20073;-29
2023/12/20 05:49:47;;;;;;;10.20;2.65;;;7.60;92.70;;;;;;5093847;28;20550;-30
2023/12/20 05:52:13;;;;;;;14.32;2.63;;;7.60;92.60;;;;;;5094325;28;20036;-28
2023/12/20 05:54:38;;;;;;;14.38;2.53;;;7.60;92.60;;;;;;5093734;28;20054;-29
2023/12/20 05:57:04;;;;;;;15.18;2.97;;;7.60;92.60;;;;;;5093872;28;20031;-29
2023/12/20 05:59:29;;;;;;;18.75;3.25;;;7.60;92.50;;;;;;5094134;28;20183;-31
2023/12/20 06:01:55;;;;;;;11.98;2.70;;;7.60;92.50;;;;;;5094056;28;20047;-29
2023/12/20 06:04:21;;;;;;;11.25;2.70;;;7.60;92.50;;;;;;5093827;28;20020;-29
2023/12/20 06:06:46;;;;;;;9.02;2.30;;;7.70;92.50;;;;;;5094046;28;20028;-30
2023/12/20 06:09:12;;;;;;;13.40;3.53;;;7.70;92.50;;;;;;5093916;28;20109;-36
2023/12/20 06:11:38;;;;;;;13.38;3.15;;;7.70;92.50;;;;;;5093569;28;20028;-29
2023/12/20 06:14:03;;;;;;;13.02;2.63;;;7.70;92.40;;;;;;5093518;28;20545;-30
2023/12/20 06:16:29;;;;;;;10.10;2.55;;;7.70;92.40;;;;;;5093455;28;20027;-29
2023/12/20 06:18:54;;;;;;;12.18;2.85;;;7.70;92.40;;;;;;5093498;28;20073;-29
2023/12/20 06:21:20;;;;;;;13.95;3.10;;;7.80;92.30;;;;;;5093623;28;20103;-30
2023/12/20 06:23:45;;;;;;;15.52;3.35;;;7.70;92.30;;;;;;5093443;28;20043;-34
2023/12/20 06:26:11;;;;;;;13.07;3.03;;;7.70;92.20;;;;;;5093264;28;20036;-35
2023/12/20 06:28:36;;;;;;;14.13;3.28;;;7.70;92.20;;;;;;5092086;28;20035;-31
2023/12/20 06:31:03;;;;;;;12.80;3.00;;;7.70;92.10;;;;;;5093159;28;20113;-30
2023/12/20 06:33:30;;;;;;;11.13;2.60;;;7.70;92.20;;;;;;5093151;28;20032;-31
2023/12/20 06:35:56;;;;;;;11.70;2.50;;;7.70;92.20;;;;;;5092917;28;20467;-29
2023/12/20 06:38:22;;;;;;;13.80;2.67;;;7.70;92.20;;;;;;5093157;28;20024;-36
2023/12/20 06:40:47;;;;;;;14.25;2.85;;;7.70;92.10;;;;;;5093201;28;20028;-32
2023/12/20 06:43:13;;;;;;;12.98;3.22;;;7.80;92.10;;;;;;5093168;28;20423;-29
2023/12/20 06:45:39;;;;;;;18.50;3.45;;;7.80;92.10;;;;;;5091756;28;20484;-29
2023/12/20 06:48:05;;;;;;;16.58;3.10;;;7.80;92.10;;;;;;5092814;28;20032;-30
2023/12/20 06:50:30;;;;;;;21.13;3.70;;;7.80;92.00;;;;;;5092659;28;20068;-31
2023/12/20 06:52:56;;;;;;;14.93;3.15;;;7.80;92.00;;;;;;5092612;28;20063;-28
2023/12/20 06:55:21;;;;;;;13.82;2.95;;;7.80;91.90;;;;;;5092335;28;20032;-27
2023/12/20 06:57:47;;;;;;;13.38;3.10;;;7.80;91.90;;;;;;5092541;28;20032;-28
2023/12/20 07:00:13;;;;;;;10.60;2.60;;;7.80;91.90;;;;;;5092150;28;20388;-30
2023/12/20 07:02:39;;;;;;;14.90;3.55;;;7.80;91.90;;;;;;5092395;28;20024;-31
2023/12/20 07:05:05;;;;;;;13.55;3.25;;;7.80;91.90;;;;;;5092213;28;20420;-29
2023/12/20 07:07:30;;;;;;;15.40;3.03;;;7.80;91.70;;;;;;5092661;28;20028;-32
2023/12/20 07:09:56;;;;;;;14.05;2.63;;;7.70;91.70;;;;;;5092498;28;20035;-29
2023/12/20 07:12:21;;;;;;;12.23;2.92;;;7.70;91.80;;;;;;5092304;28;20035;-34
2023/12/20 07:14:47;;;;;;;14.90;2.80;;;7.70;91.70;;;;;;5092154;28;20085;-28
2023/12/20 07:17:14;;;;;;;19.52;4.00;;;7.80;91.70;;;;;;5092235;28;20028;-33
2023/12/20 07:19:40;;;;;;;12.85;3.00;;;7.80;91.90;;;;;;5092254;28;20424;-32
2023/12/20 07:22:06;;;;;;;13.52;3.20;;;7.70;91.70;;;;;;5092198;28;20056;-31
2023/12/20 07:24:32;;;;;;;11.88;2.83;;;7.80;91.70;;;;;;5092390;28;20016;-30
2023/12/20 07:26:59;;;;;;;15.70;3.10;;;7.70;91.70;;;;;;5092217;28;20029;-32
2023/12/20 07:29:25;;;;;;;14.98;2.97;;;7.70;91.70;;;;;;5092012;28;20365;-29
2023/12/20 07:31:51;;;;;;;21.58;3.80;;;7.70;91.70;;;;;;5092231;28;20035;-30
2023/12/20 07:34:17;;;;;;;17.80;3.45;;;7.80;91.70;;;;;;5091673;28;20051;-32
2023/12/20 07:36:43;;;;;;;11.60;3.35;;;7.80;91.60;;;;;;5091853;28;20067;-33
2023/12/20 07:39:08;;;;;;;15.35;3.10;;;7.80;91.60;;;;;;5091933;28;20078;-29
2023/12/20 07:41:34;;;;;;;10.93;2.85;;;7.80;91.60;;;;;;5091541;28;20027;-29
2023/12/20 07:44:00;;;;;;;13.07;3.13;;;7.80;91.70;;;;;;5090181;28;20108;-31
2023/12/20 07:46:25;;;;;;;14.80;3.17;;;7.80;91.70;;;;;;5090545;28;20081;-30
2023/12/20 07:48:51;;;;;;;18.30;3.97;;;7.80;91.70;;;;;;5088876;28;20040;-31
2023/12/20 07:51:17;;;;;;;13.98;3.17;;;7.80;91.70;;;;;;5088835;28;20080;-30
2023/12/20 07:53:42;;;;;;;16.30;3.35;;;7.90;91.60;;;;;;5088965;28;20035;-34
2023/12/20 07:56:18;;;;;;;14.65;3.20;;;7.90;91.50;;;;;;5091052;28;20491;-34
2023/12/20 07:58:45;;;;;;;15.30;3.20;;;7.80;91.50;;;;;;5091582;28;20111;-31
2023/12/20 08:01:11;;;;;;;17.42;3.55;;;7.80;91.60;;;;;;5091910;28;20489;-31
2023/12/20 08:03:37;;;;;;;14.55;3.60;;;7.90;91.50;;;;;;5089817;28;20024;-29
2023/12/20 08:06:03;;;;;;;12.30;2.85;;;7.90;91.50;;;;;;5090398;28;20062;-31
2023/12/20 08:08:29;;;;;;;11.52;2.58;;;7.90;91.50;;;;;;5091599;28;20408;-28
2023/12/20 08:10:54;;;;;;;14.80;3.63;;;7.90;91.50;;;;;;5091395;28;20148;-30
2023/12/20 08:13:24;;;;;;;15.63;3.05;;;7.90;91.60;;;;;;5091434;28;20055;-33
2023/12/20 08:15:50;;;;;;;14.27;2.65;;;7.90;91.50;;;;;;5091163;28;20125;-35
2023/12/20 08:18:16;;;;;;;23.10;3.17;;;8.00;91.60;;;;;;5091440;28;20484;-32
2023/12/20 08:20:41;;;;;;;16.55;3.40;;;7.90;91.50;;;;;;5091158;28;20359;-31
2023/12/20 08:23:07;;;;;;;16.83;3.33;;;8.00;91.50;;;;;;5091448;28;20373;-30
2023/12/20 08:25:32;;;;;;;10.77;2.50;;;8.00;91.50;;;;;;5091077;28;20236;-32
2023/12/20 08:27:58;;;;;;;14.07;3.53;;;8.00;91.40;;;;;;5091485;28;20453;-29
2023/12/20 08:30:23;;;;;;;10.95;2.60;;;8.00;91.40;;;;;;5091091;28;20373;-30
2023/12/20 08:32:49;;;;;;;17.42;3.05;;;8.00;91.40;;;;;;5091310;28;20032;-29
2023/12/20 08:35:14;;;;;;;16.33;2.88;;;8.00;91.40;;;;;;5091175;28;20032;-29
2023/12/20 08:37:40;;;;;;;11.82;2.70;;;8.00;91.40;;;;;;5091138;28;20032;-29
2023/12/20 08:40:06;;;;;;;16.73;3.17;;;8.00;91.40;;;;;;5091204;28;20023;-28
2023/12/20 08:42:32;;;;;;;13.80;3.28;;;8.00;91.40;;;;;;5090000;28;20023;-29
2023/12/20 08:45:00;;;;;;;19.00;3.25;;;8.00;91.30;;;;;;5090983;28;20024;-30
2023/12/20 08:47:26;;;;;;;14.18;3.28;;;8.00;91.30;;;;;;5091639;28;20487;-29
2023/12/20 08:49:56;;;;;;;15.98;2.70;;;8.10;91.30;;;;;;5090851;28;20097;-32
2023/12/20 08:52:23;;;;;;;10.90;2.60;;;8.10;91.30;;;;;;5091077;28;20032;-30
2023/12/20 08:54:51;;;;;;;13.30;2.83;;;8.10;91.30;;;;;;5089488;28;20492;-32
2023/12/20 08:57:18;;;;;;;17.55;4.03;;;8.10;91.30;;;;;;5091400;28;20021;-29
2023/12/20 08:59:44;;;;;;;16.17;2.78;;;8.10;91.30;;;;;;5091206;28;20501;-30
2023/12/20 09:02:10;;;;;;;15.77;3.08;;;8.10;91.30;;;;;;5091165;28;20024;-31
2023/12/20 09:04:35;;;;;;;14.80;3.28;;;8.10;91.30;;;;;;5089374;28;20055;-31
2023/12/20 09:07:01;;;;;;;9.48;2.88;;;8.10;91.30;;;;;;5091006;28;20502;-30
2023/12/20 09:09:26;;;;;;;15.05;3.10;;;8.10;91.40;;;;;;5091029;28;20422;-33
2023/12/20 09:11:52;;;;;;;15.38;3.58;;;8.10;91.40;;;;;;5090855;28;20034;-31
2023/12/20 09:14:17;;;;;;;14.05;3.30;;;8.10;91.40;;;;;;5090885;28;20024;-31
2023/12/20 09:16:43;;;;;;;15.63;2.80;;;8.10;91.40;;;;;;5090686;28;20056;-30
2023/12/20 09:19:09;;;;;;;17.58;2.97;;;8.10;91.50;;;;;;5091064;28;20031;-30
2023/12/20 09:21:34;;;;;;;11.98;2.70;;;8.10;91.60;;;;;;5091313;28;20020;-30
2023/12/20 09:24:00;;;;;;;14.35;3.10;;;8.10;91.60;;;;;;5094540;28;20436;-29
2023/12/20 09:26:25;;;;;;;15.38;2.80;;;8.00;91.70;;;;;;5094201;28;20031;-29
2023/12/20 09:28:51;;;;;;;16.38;2.60;;;8.00;91.70;;;;;;5094606;28;20055;-31
2023/12/20 09:31:17;;;;;;;16.83;3.65;;;8.00;91.80;;;;;;5094279;28;20109;-30
2023/12/20 09:33:42;;;;;;;10.25;2.65;;;8.00;91.90;;;;;;5094378;28;20027;-29
2023/12/20 09:36:08;;;;;;;16.08;3.03;;;8.00;92.00;;;;;;5094062;28;20031;-28
2023/12/20 09:38:34;;;;;;;12.73;3.10;;;7.90;92.10;;;;;;5094200;28;20026;-31
2023/12/20 09:41:02;;;;;;;17.75;3.38;;;7.90;92.50;;;;;;5094144;28;20051;-33
2023/12/20 09:43:29;;;;;;;15.73;3.20;;;7.90;92.30;;;;;;5094234;28;20027;-28
2023/12/20 09:46:00;;;;;;;12.15;3.10;;;7.90;92.30;;;;;;5094066;28;20028;-35
2023/12/20 09:48:27;;;;;;;12.10;3.20;;;7.80;92.40;;;;;;5093829;28;20477;-28
2023/12/20 09:50:53;;;;;;;18.25;3.47;;;7.80;92.50;;;;;;5094112;28;20035;-28
2023/12/20 09:53:21;;;;;;;17.83;3.65;;;7.80;92.60;;;;;;5094030;28;20027;-28
2023/12/20 09:55:47;;;;;;;14.15;2.80;;;7.80;92.70;;;;;;5094023;28;20424;-31
2023/12/20 09:58:12;;;;;;;15.60;3.28;;;7.80;93.00;;;;;;5094097;28;20095;-32
2023/12/20 10:00:38;;;;;;;9.35;2.45;;;7.80;92.80;;;;;;5093917;28;20020;-30
2023/12/20 10:03:05;;;;;;;15.45;3.08;;;7.80;92.80;;;;;;5093600;28;20062;-29
2023/12/20 10:05:32;;;;;;;16.98;3.33;;;7.90;92.90;;;;;;5093586;28;20081;-28
2023/12/20 10:07:59;;;;;;;22.08;3.88;;;7.80;92.90;;;;;;5093580;28;20028;-35
2023/12/20 10:10:25;;;;;;;13.88;3.17;;;7.90;93.00;;;;;;5093597;28;20115;-28
2023/12/20 10:13:06;;;;;;;16.85;3.08;;;7.90;93.00;;;;;;5093659;28;20440;-30
2023/12/20 10:15:36;;;;;;;15.25;3.25;;;7.90;93.00;;;;;;5093335;28;20028;-30
2023/12/20 10:18:02;;;;;;;16.50;2.72;;;7.90;93.00;;;;;;5093435;28;20054;-29
2023/12/20 10:20:28;;;;;;;14.45;2.70;;;7.90;92.90;;;;;;5093544;28;20046;-29
2023/12/20 10:22:58;;;;;;;15.13;3.75;;;8.00;93.00;;;;;;5093639;28;20016;-29
2023/12/20 10:25:24;;;;;;;11.93;2.70;;;8.00;93.00;;;;;;5091786;28;20533;-34
2023/12/20 10:28:08;;;;;;;9.63;3.10;;;8.00;92.90;;;;;;5093353;28;20024;-28
2023/12/20 10:30:33;;;;;;;17.45;3.42;;;8.00;92.90;;;;;;5093569;28;20038;-30
2023/12/20 10:32:59;;;;;;;12.32;2.85;;;8.10;92.90;;;;;;5092418;28;20028;-30
2023/12/20 10:35:25;;;;;;;15.07;3.35;;;8.10;92.90;;;;;;5093047;28;20024;-35
2023/12/20 10:37:56;;;;;;;14.45;2.80;;;8.20;92.90;;;;;;5093179;28;20077;-28
2023/12/20 10:40:22;;;;;;;15.95;3.17;;;8.20;92.90;;;;;;5093476;28;20043;-29
2023/12/20 10:42:50;;;;;;;14.05;3.00;;;8.20;92.80;;;;;;5093014;28;20099;-31
2023/12/20 10:45:17;;;;;;;15.30;3.35;;;8.20;92.80;;;;;;5093031;28;20455;-28
2023/12/20 10:47:46;;;;;;;14.60;3.05;;;8.30;92.80;;;;;;5093037;28;20020;-31
2023/12/20 10:50:11;;;;;;;14.45;3.15;;;8.30;92.70;;;;;;5092560;28;20131;-31
2023/12/20 10:52:38;;;;;;;15.93;3.15;;;8.30;92.80;;;;;;5093106;28;20127;-27
2023/12/20 10:55:05;;;;;;;15.45;3.33;;;8.30;92.70;;;;;;5092495;28;20039;-31
2023/12/20 10:57:30;;;;;;;12.52;2.78;;;8.30;92.70;;;;;;5092931;28;20077;-29
2023/12/20 11:00:04;;;;;;;12.65;2.95;;;8.30;92.70;;;;;;5092624;28;20020;-29
2023/12/20 11:02:32;;;;;;;13.43;2.80;;;8.30;92.70;;;;;;5092414;28;20024;-33
2023/12/20 11:05:13;;;;;;;11.88;2.88;;;8.40;92.70;;;;;;5092344;28;20028;-29
2023/12/20 11:07:48;;;;;;;9.73;2.70;;;8.40;92.70;;;;;;5092683;28;20066;-30
2023/12/20 11:10:23;;;;;;;14.18;2.63;;;8.40;92.70;;;;;;5092365;28;20150;-30
2023/12/20 11:13:03;;;;;;;13.25;2.90;;;8.40;92.70;;;;;;5092924;28;20020;-30
2023/12/20 11:15:29;;;;;;;14.57;2.92;;;8.50;92.80;;;;;;5092153;28;20050;-30
2023/12/20 11:17:56;;;;;;;10.88;2.58;;;8.50;92.70;;;;;;5092405;28;20066;-28
2023/12/20 11:20:23;;;;;;;11.07;2.75;;;8.50;92.70;;;;;;5092317;28;20021;-29
2023/12/20 11:22:53;;;;;;;12.75;2.83;;;8.50;92.70;;;;;;5092366;28;20035;-31
2023/12/20 11:25:20;;;;;;;9.43;2.60;;;8.60;92.70;;;;;;5092070;28;20028;-27
2023/12/20 11:28:12;;;;;;;12.20;2.60;;;8.60;92.70;;;;;;5092564;28;20036;-29
2023/12/20 11:30:59;;;;;;;17.05;4.63;;;8.60;92.60;;;;;;5092086;28;20073;-30
2023/12/20 11:33:29;;;;;;;12.90;3.00;;;8.60;92.60;;;;;;5090761;28;20111;-29
2023/12/20 11:35:59;;;;;;;15.50;3.20;;;8.60;92.60;;;;;;5091832;28;20516;-28
2023/12/20 11:38:25;;;;;;;19.95;3.40;;;8.60;92.60;;;;;;5092041;28;20024;-28
2023/12/20 11:40:53;;;;;;;12.63;3.35;;;8.70;92.60;;;;;;5092147;28;20062;-31
2023/12/20 11:43:39;;;;;;;13.93;3.05;;;8.70;92.60;;;;;;5092388;28;20062;-29
2023/12/20 11:46:05;;;;;;;16.20;3.17;;;8.70;92.60;;;;;;5091692;28;20024;-31
2023/12/20 11:48:32;;;;;;;12.73;2.67;;;8.70;92.60;;;;;;5092037;28;20514;-29
2023/12/20 11:50:58;;;;;;;12.73;3.10;;;8.70;92.60;;;;;;5092387;28;20020;-30
2023/12/20 11:53:23;;;;;;;12.68;2.88;;;8.70;92.60;;;;;;5092033;28;20024;-31
2023/12/20 11:55:49;;;;;;;12.40;3.13;;;8.80;92.60;;;;;;5091595;28;20109;-28
2023/12/20 11:58:16;;;;;;;14.75;3.25;;;8.80;92.60;;;;;;5091828;28;20033;-31
2023/12/20 12:00:43;;;;;;;9.13;2.85;;;8.90;92.50;;;;;;5091896;28;20028;-34
2023/12/20 12:03:09;;;;;;;13.65;2.53;;;8.90;92.50;;;;;;5091700;28;20016;-28
2023/12/20 12:05:35;;;;;;;15.65;2.88;;;8.90;92.40;;;;;;5091627;28;20032;-28
2023/12/20 12:08:02;;;;;;;9.77;2.60;;;9.00;92.60;;;;;;5092177;28;20483;-33
2023/12/20 12:10:28;;;;;;;11.50;2.28;;;9.00;92.10;;;;;;5091673;28;20116;-36
2023/12/20 12:12:54;;;;;;;14.75;2.80;;;9.00;92.10;;;;;;5091632;28;20024;-29
2023/12/20 12:15:21;;;;;;;11.75;2.67;;;9.00;92.00;;;;;;5091525;28;20090;-32
2023/12/20 12:17:53;;;;;;;9.93;2.78;;;9.10;92.10;;;;;;5091515;28;20012;-32
2023/12/20 12:20:20;;;;;;;10.52;2.45;;;9.10;91.90;;;;;;5091499;28;20012;-29
2023/12/20 12:22:50;;;;;;;12.77;2.25;;;9.10;91.90;;;;;;5091386;28;20028;-28
2023/12/20 12:25:16;;;;;;;8.23;2.40;;;9.10;91.70;;;;;;5091428;28;20488;-30
2023/12/20 12:27:43;;;;;;;11.65;3.35;;;9.10;91.60;;;;;;5091437;28;20058;-28
2023/12/20 12:30:10;;;;;;;14.48;3.08;;;9.10;91.00;;;;;;5091455;28;20080;-30
2023/12/20 12:32:36;;;;;;;11.43;2.20;;;9.20;91.20;;;;;;5091410;28;20027;-27
2023/12/20 12:35:08;;;;;;;10.00;2.25;;;9.20;91.00;;;;;;5091654;28;20069;-31
2023/12/20 12:37:38;;;;;;;8.97;2.20;;;9.20;90.80;;;;;;5091640;28;20020;-37
2023/12/20 12:40:05;;;;;;;10.90;2.25;;;9.20;90.90;;;;;;5091481;28;20039;-32
2023/12/20 12:42:30;;;;;;;8.85;2.38;;;9.30;91.00;;;;;;5091348;28;20498;-28
2023/12/20 12:44:56;;;;;;;13.63;2.60;;;9.30;90.90;;;;;;5091147;28;20020;-30
2023/12/20 12:47:22;;;;;;;16.52;2.47;;;9.30;90.80;;;;;;5091228;28;20027;-28